This is the latest recevied weather packets stored in our database for station/object DL7GAI-7. If no packets are shown the sender has not sent any weather packets the latest 10 day(s).
| Time | Temp. | Humidity | Pressure | Rain* | Wind** | Luminosity | Snow |
|---|---|---|---|---|---|---|---|
| 1777081659 | 6.11° C | 61% | 1019.9 hPa | 0 mm | 1.34 m/s, 315° | - | - |
| 1777080853 | 7.78° C | 56% | 1019.8 hPa | 0 mm | 0.89 m/s, 315° | - | - |
| 1777080019 | 7.78° C | 56% | 1019.8 hPa | 0 mm | 0.89 m/s, 315° | - | - |
| 1777079189 | 7.78° C | 56% | 1019.8 hPa | 0 mm | 0.89 m/s, 315° | - | - |
| 1777078405 | 7.22° C | 59% | 1020 hPa | 0 mm | 0.89 m/s, 0° | - | - |
| 1777077604 | 7.22° C | 59% | 1020 hPa | 0 mm | 0.89 m/s, 0° | - | - |
| 1777076883 | 7.22° C | 59% | 1020 hPa | 0 mm | 0.89 m/s, 0° | - | - |
| 1777076033 | 7.22° C | 59% | 1020 hPa | 0 mm | 0.89 m/s, 0° | - | - |
| 1777075164 | 8.33° C | 57% | 1020 hPa | 0 mm | 0.89 m/s, 0° | - | - |
| 1777074312 | 8.33° C | 57% | 1020 hPa | 0 mm | 0.89 m/s, 0° | - | - |
| 1777073509 | 8.33° C | 55% | 1019.9 hPa | 0 mm | 1.34 m/s, 0° | - | - |
| 1777072633 | 8.33° C | 55% | 1019.9 hPa | 0 mm | 1.34 m/s, 0° | - | - |
| 1777071849 | 10.56° C | 46% | 1019.7 hPa | 0 mm | 0.89 m/s, 45° | - | - |
| 1777071013 | 10.56° C | 46% | 1019.7 hPa | 0 mm | 0.89 m/s, 45° | - | - |
| 1777070139 | 12.22° C | 42% | 1019.4 hPa | 0 mm | 0.89 m/s, 180° | - | - |
| 1777069344 | 12.22° C | 42% | 1019.4 hPa | 0 mm | 0.89 m/s, 180° | - | - |
| 1777068494 | 12.22° C | 42% | 1019.4 hPa | 0 mm | 0.89 m/s, 180° | - | - |
| 1777067664 | 15.56° C | 33% | 1018.2 hPa | 0 mm | 3.58 m/s, 0° | - | - |
| 1777066853 | 15.56° C | 33% | 1018.2 hPa | 0 mm | 3.58 m/s, 0° | - | - |
| 1777066039 | 15.56° C | 33% | 1018.2 hPa | 0 mm | 3.58 m/s, 0° | - | - |
| 1777065204 | 15.56° C | 33% | 1018.2 hPa | 0 mm | 3.58 m/s, 0° | - | - |
| 1777064472 | 15.56° C | 33% | 1018.2 hPa | 0 mm | 3.58 m/s, 0° | - | - |
| 1777063667 | 15.56° C | 33% | 1018.2 hPa | 0 mm | 3.58 m/s, 0° | - | - |
| 1777062809 | 13.33° C | 43% | 1018.5 hPa | 0 mm | 3.13 m/s, 45° | - | - |
| 1777061963 | 13.33° C | 43% | 1018.5 hPa | 0 mm | 3.13 m/s, 45° | - | - |
* Rain latest hour (hover to see other rain measurements)
** Current wind speed in m/s (hover to see current wind gust speed)